Главная страница
METAR-TAF:

METAR-TAF

Аэропорты :

Орадя, Румыния

широта: 47-03N, долгота: 021-56E, высота над уровнем моря: 135 м

Текущие метеонаблюдения

Эта сводка был подготовлена 31 минут назад, в 05:30 UTC
Ветер 6 Узел от восточно-юго-восточный
Температура 15°C
Влажность 82%
Давление 1019 hPa
Видимость 10 км и более
Нет облачности ниже 1500 м, и нет кучево-дождевой облачности

METAR: LROD 210530Z 11006KT CAVOK 15/12 Q1019

Время: 09:01 (06:01 UTC)

Прогноз

Эта сводка был подготовлена 1 час и 1 минут назад, в 05:00 UTC
Прогноз действительный с 21-го 06 UTC до 21-го 15 UTC
Ветер 6 Узел от восточно-юго-восточный
Видимость 10 км и более
Нет облачности ниже 1500 м, и нет кучево-дождевой облачности
изменения
С 21-го 08 UTC до 21-го 10 UTC
Ветер 10 Узел от южный-юго-западный

TAF: LROD 210500Z 2106/2115 11006KT CAVOK BECMG 2108/2110 21010KT

Метеонаблюдения и прогнозы для более 4000 аэропортов (сводки METAR и TAF).

Имеющиеся станции представлены на карте желтыми и красными точками.

Чтобы увидеть название станции, наведите на нее мышь.

Затем щелкните, чтобы увидеть метеонаблюдения и метеопрогнозы.

Управление картой: чтобы увеличить масштаб, щелкните зеленые кнопки с черным крестиком; чтобы уменьшить масштаб, щелкните зеленую кнопку с тире; для просмотра соседних карт щелкайте зеленые стрелки.


METAR-TAF: